Time;durP1;ratioP1;P1;durP2;ratioP2;P2;SDS_P1;SDS_P2;PMS_P1;PMS_P2;Temp;Humidity;BMP_temperature;BMP_pressure;BME280_temperature;BME280_humidity;BME280_pressure;Samples;Min_cycle;Max_cycle;Signal;HPM_P1;HPM_P2
2024/03/11 00:01:12;;;;;;;4.30;1.20;;;3.90;99.90;;;;;;5090710;28;21299;-85
2024/03/11 00:03:39;;;;;;;2.90;1.13;;;3.70;99.90;;;;;;5092744;28;20036;-85
2024/03/11 00:06:05;;;;;;;2.88;1.30;;;3.60;99.90;;;;;;5093982;28;20046;-83
2024/03/11 00:08:31;;;;;;;2.35;1.10;;;3.50;99.90;;;;;;5092123;28;21316;-84
2024/03/11 00:11:00;;;;;;;2.38;1.13;;;3.50;99.90;;;;;;5091823;28;20035;-85
2024/03/11 00:13:35;;;;;;;2.65;1.20;;;3.60;99.90;;;;;;5092123;28;21390;-84
2024/03/11 00:16:02;;;;;;;3.10;1.27;;;3.60;99.90;;;;;;5090892;28;20092;-84
2024/03/11 00:18:28;;;;;;;2.85;1.13;;;3.70;99.90;;;;;;5095137;28;20093;-84
2024/03/11 00:20:56;;;;;;;7.15;1.17;;;3.80;99.90;;;;;;5096250;28;20028;-84
2024/03/11 00:23:22;;;;;;;3.05;1.40;;;3.80;99.90;;;;;;5094568;28;20054;-84
2024/03/11 00:25:48;;;;;;;1.80;0.98;;;3.60;99.90;;;;;;5092897;28;20169;-84
2024/03/11 00:28:13;;;;;;;2.47;1.25;;;3.60;99.90;;;;;;5094811;28;20036;-84
2024/03/11 00:30:39;;;;;;;3.63;1.40;;;3.60;99.90;;;;;;5094419;28;20122;-85
2024/03/11 00:33:09;;;;;;;2.08;0.98;;;3.50;99.90;;;;;;5095471;28;20556;-84
2024/03/11 00:35:34;;;;;;;1.73;0.90;;;3.60;99.90;;;;;;5095406;28;20045;-84
2024/03/11 00:38:02;;;;;;;2.45;0.98;;;3.60;99.90;;;;;;5095558;28;20043;-84
2024/03/11 00:40:29;;;;;;;3.05;1.20;;;3.80;99.90;;;;;;5095110;28;20126;-86
2024/03/11 00:42:55;;;;;;;1.75;0.85;;;4.00;99.90;;;;;;5094892;28;20431;-85
2024/03/11 00:45:23;;;;;;;1.98;0.85;;;4.10;99.90;;;;;;5092806;28;20035;-84
2024/03/11 00:47:49;;;;;;;2.97;1.45;;;4.20;99.90;;;;;;5092786;28;20039;-84
2024/03/11 00:50:14;;;;;;;5.82;2.53;;;4.10;99.90;;;;;;5095533;28;20034;-86
2024/03/11 00:52:41;;;;;;;4.80;2.22;;;4.00;99.90;;;;;;5093660;28;20161;-86
2024/03/11 00:55:11;;;;;;;6.15;2.72;;;3.90;99.90;;;;;;5093723;28;20469;-85
2024/03/11 00:57:38;;;;;;;5.30;2.78;;;3.70;99.90;;;;;;5094083;28;20043;-86
2024/03/11 01:00:08;;;;;;;5.60;3.35;;;3.80;99.90;;;;;;5093622;28;20062;-86
2024/03/11 01:02:34;;;;;;;3.10;1.65;;;3.80;99.90;;;;;;5094871;28;20031;-86
2024/03/11 01:05:00;;;;;;;2.63;1.30;;;3.50;99.90;;;;;;5095716;28;20034;-85
2024/03/11 01:07:26;;;;;;;3.95;1.35;;;3.70;99.90;;;;;;5094548;28;20055;-86
2024/03/11 01:09:52;;;;;;;3.08;1.27;;;3.60;99.90;;;;;;5096537;28;20023;-86
2024/03/11 01:12:19;;;;;;;3.97;1.25;;;3.60;99.90;;;;;;5095019;28;20035;-85
2024/03/11 01:14:44;;;;;;;3.30;1.73;;;3.80;99.90;;;;;;5094171;28;21134;-86
2024/03/11 01:17:10;;;;;;;2.80;1.38;;;3.90;99.90;;;;;;5095412;28;20044;-86
2024/03/11 01:19:36;;;;;;;3.70;1.25;;;3.90;99.90;;;;;;5094720;28;20401;-86
2024/03/11 01:22:02;;;;;;;5.28;1.02;;;3.80;99.90;;;;;;5094332;28;20031;-86
2024/03/11 01:24:28;;;;;;;1.75;1.00;;;3.80;99.90;;;;;;5095811;28;20031;-86
2024/03/11 01:26:57;;;;;;;4.63;1.33;;;3.90;99.90;;;;;;5094968;28;20530;-86
2024/03/11 01:29:26;;;;;;;3.63;1.17;;;3.90;99.90;;;;;;5093514;28;20131;-86
2024/03/11 01:31:52;;;;;;;5.22;1.80;;;4.10;99.90;;;;;;5093819;28;20036;-85
2024/03/11 01:34:21;;;;;;;2.80;1.45;;;4.20;99.90;;;;;;5094971;28;20036;-85
2024/03/11 01:36:47;;;;;;;1.55;0.80;;;4.20;99.90;;;;;;5086013;28;20042;-86
2024/03/11 01:39:24;;;;;;;1.73;0.80;;;4.00;99.90;;;;;;5091729;28;20036;-86
2024/03/11 01:41:51;;;;;;;2.78;1.20;;;4.10;99.90;;;;;;5092132;28;20048;-84
2024/03/11 01:44:17;;;;;;;2.45;1.20;;;4.00;99.90;;;;;;5091591;28;20092;-84
2024/03/11 01:46:44;;;;;;;2.25;1.00;;;4.10;99.90;;;;;;5090989;28;20032;-84
2024/03/11 01:49:11;;;;;;;2.50;1.17;;;4.20;99.90;;;;;;5091437;27;20035;-83
2024/03/11 01:51:38;;;;;;;4.38;1.23;;;4.00;99.90;;;;;;5091769;28;20069;-86
2024/03/11 01:54:04;;;;;;;2.58;1.00;;;3.70;99.90;;;;;;5091730;28;20081;-86
2024/03/11 01:56:31;;;;;;;1.55;1.00;;;3.60;99.90;;;;;;5094096;28;20041;-86
2024/03/11 01:59:01;;;;;;;1.88;0.80;;;3.60;99.90;;;;;;5091569;28;20067;-85
2024/03/11 02:01:27;;;;;;;2.92;0.90;;;3.50;99.90;;;;;;5090019;28;20115;-86
2024/03/11 02:03:52;;;;;;;2.45;1.00;;;3.50;99.90;;;;;;5093913;28;20031;-85
2024/03/11 02:06:19;;;;;;;3.80;1.20;;;3.60;99.90;;;;;;5091048;28;20032;-86
2024/03/11 02:08:45;;;;;;;2.53;1.25;;;3.80;99.90;;;;;;5091704;28;20050;-86
2024/03/11 02:11:11;;;;;;;2.65;1.67;;;4.00;99.90;;;;;;5092651;28;20035;-85
2024/03/11 02:13:37;;;;;;;2.75;1.42;;;4.10;99.90;;;;;;5092448;28;20024;-85
2024/03/11 02:16:03;;;;;;;3.70;1.70;;;4.00;99.90;;;;;;5092062;28;20086;-85
2024/03/11 02:18:28;;;;;;;2.92;1.38;;;4.00;99.90;;;;;;5091935;28;20511;-86
2024/03/11 02:20:56;;;;;;;3.15;1.45;;;4.00;99.90;;;;;;5091525;28;20036;-83
2024/03/11 02:23:22;;;;;;;2.17;1.15;;;3.90;99.90;;;;;;5092201;28;20850;-83
2024/03/11 02:25:48;;;;;;;4.18;1.45;;;3.80;99.90;;;;;;5091794;28;20032;-84
2024/03/11 02:28:14;;;;;;;3.53;1.20;;;3.70;99.90;;;;;;5093332;28;20042;-83
2024/03/11 02:30:40;;;;;;;4.68;1.42;;;3.70;99.90;;;;;;5092027;28;20066;-83
2024/03/11 02:33:06;;;;;;;2.30;1.13;;;3.70;99.90;;;;;;5092845;28;20167;-83
2024/03/11 02:35:32;;;;;;;5.07;1.80;;;3.70;99.90;;;;;;5091305;28;20031;-84
2024/03/11 02:37:57;;;;;;;5.65;2.65;;;4.00;99.90;;;;;;5090342;28;20570;-84
2024/03/11 02:40:26;;;;;;;4.80;2.83;;;4.10;99.90;;;;;;5091988;28;20035;-84
2024/03/11 02:42:56;;;;;;;6.60;3.38;;;4.20;99.90;;;;;;5087113;28;21330;-85
2024/03/11 02:45:25;;;;;;;6.53;3.05;;;4.30;99.90;;;;;;5090466;28;20042;-84
2024/03/11 02:47:51;;;;;;;5.82;3.38;;;4.30;99.90;;;;;;5091607;28;20500;-84
2024/03/11 02:50:27;;;;;;;5.72;3.42;;;4.30;99.90;;;;;;5089477;28;20036;-84
2024/03/11 02:52:53;;;;;;;6.47;4.00;;;4.20;99.90;;;;;;5087800;28;20176;-84
2024/03/11 02:55:21;;;;;;;5.65;3.58;;;4.40;99.90;;;;;;5096542;28;20052;-84
2024/03/11 02:57:48;;;;;;;5.40;3.03;;;4.20;99.90;;;;;;5094169;28;20054;-84
2024/03/11 03:00:16;;;;;;;6.28;4.32;;;4.20;99.90;;;;;;5094495;28;20699;-84
2024/03/11 03:02:42;;;;;;;5.18;3.03;;;4.20;99.90;;;;;;5096513;28;20688;-83
2024/03/11 03:05:08;;;;;;;6.78;4.18;;;4.20;99.90;;;;;;5095681;28;20039;-84
2024/03/11 03:07:35;;;;;;;5.63;3.05;;;4.40;99.90;;;;;;5096162;28;20032;-83
2024/03/11 03:10:04;;;;;;;4.60;2.85;;;4.40;99.90;;;;;;5095925;28;20163;-84
2024/03/11 03:12:30;;;;;;;5.80;3.22;;;4.20;99.90;;;;;;5095882;28;20048;-84
2024/03/11 03:14:58;;;;;;;3.75;1.73;;;4.20;99.90;;;;;;5094449;28;20635;-84
2024/03/11 03:17:24;;;;;;;8.80;3.00;;;4.10;99.90;;;;;;5095497;28;20497;-83
2024/03/11 03:19:50;;;;;;;4.57;2.58;;;4.20;99.90;;;;;;5094930;28;20097;-83
2024/03/11 03:22:16;;;;;;;4.32;2.25;;;4.10;99.90;;;;;;5094534;28;20031;-84
2024/03/11 03:24:42;;;;;;;3.88;2.25;;;4.10;99.90;;;;;;5095156;28;20097;-84
2024/03/11 03:27:08;;;;;;;4.38;1.80;;;4.10;99.90;;;;;;5096794;28;20028;-83
2024/03/11 03:29:35;;;;;;;5.07;2.83;;;4.10;99.90;;;;;;5094139;28;20047;-83
2024/03/11 03:32:01;;;;;;;5.03;3.47;;;4.10;99.90;;;;;;5094617;28;20039;-85
2024/03/11 03:34:27;;;;;;;7.22;4.45;;;4.30;99.90;;;;;;5095351;28;20119;-86
2024/03/11 03:36:53;;;;;;;7.35;4.97;;;4.40;99.90;;;;;;5095105;28;20458;-86
2024/03/11 03:39:20;;;;;;;7.28;4.85;;;4.40;99.90;;;;;;5094235;28;20891;-85
2024/03/11 03:41:45;;;;;;;7.90;3.28;;;4.50;99.90;;;;;;5094524;28;20043;-86
2024/03/11 03:44:11;;;;;;;4.43;3.05;;;4.50;99.90;;;;;;5093430;28;20099;-86
2024/03/11 03:46:37;;;;;;;6.13;3.00;;;4.40;99.90;;;;;;5096324;27;20518;-85
2024/03/11 03:49:02;;;;;;;5.90;3.20;;;4.20;99.90;;;;;;5093906;28;20084;-85
2024/03/11 03:51:28;;;;;;;4.85;3.00;;;4.30;99.90;;;;;;5095297;28;20459;-85
2024/03/11 03:53:56;;;;;;;6.82;2.95;;;4.20;99.90;;;;;;5096189;28;21436;-86
2024/03/11 03:56:21;;;;;;;4.88;3.10;;;4.10;99.90;;;;;;5094547;28;20039;-85
2024/03/11 03:58:47;;;;;;;5.32;3.40;;;4.00;99.90;;;;;;5095082;28;20028;-87
2024/03/11 04:01:13;;;;;;;6.57;3.30;;;4.10;99.90;;;;;;5093649;28;20131;-85
2024/03/11 04:03:38;;;;;;;6.72;3.95;;;4.10;99.90;;;;;;5091538;28;20092;-85
2024/03/11 04:06:05;;;;;;;6.80;3.90;;;4.10;99.90;;;;;;5091127;28;20036;-86
2024/03/11 04:08:30;;;;;;;5.25;3.67;;;4.10;99.90;;;;;;5092208;28;20040;-85
2024/03/11 04:10:56;;;;;;;6.05;3.80;;;4.20;99.90;;;;;;5091701;28;20054;-86
2024/03/11 04:13:22;;;;;;;5.90;3.90;;;4.40;99.90;;;;;;5091311;28;20036;-86
2024/03/11 04:15:48;;;;;;;6.75;3.95;;;4.40;99.90;;;;;;5091341;28;20039;-87
2024/03/11 04:18:14;;;;;;;5.97;3.97;;;4.40;99.90;;;;;;5088152;28;23006;-86
2024/03/11 04:20:40;;;;;;;6.43;4.00;;;4.40;99.90;;;;;;5088680;28;20028;-85
2024/03/11 04:23:07;;;;;;;5.60;3.53;;;4.40;99.90;;;;;;5089353;28;20038;-85
2024/03/11 04:25:37;;;;;;;5.95;3.92;;;4.30;99.90;;;;;;5091487;28;20032;-85
2024/03/11 04:28:05;;;;;;;6.75;4.47;;;4.30;99.90;;;;;;5092369;28;20542;-87
2024/03/11 04:30:40;;;;;;;6.78;4.35;;;4.50;99.90;;;;;;5092338;28;20122;-88
2024/03/11 04:33:06;;;;;;;8.10;4.93;;;4.50;99.90;;;;;;5085229;28;20549;-85
2024/03/11 04:35:34;;;;;;;5.80;3.85;;;4.60;99.90;;;;;;5087178;28;20046;-86
2024/03/11 04:38:10;;;;;;;6.38;3.95;;;4.40;99.90;;;;;;5090982;28;20079;-86
2024/03/11 04:40:38;;;;;;;7.50;4.10;;;4.50;99.90;;;;;;5088933;28;20042;-86
2024/03/11 04:43:05;;;;;;;5.32;3.75;;;4.50;99.90;;;;;;5087863;28;20039;-86
2024/03/11 04:45:31;;;;;;;5.88;4.10;;;4.50;99.90;;;;;;5089965;28;20090;-86
2024/03/11 04:47:59;;;;;;;5.38;3.33;;;4.60;99.90;;;;;;5090365;28;20031;-84
2024/03/11 04:50:30;;;;;;;5.50;3.17;;;4.70;99.90;;;;;;5087767;28;20035;-84
2024/03/11 04:52:58;;;;;;;7.18;4.88;;;4.50;99.90;;;;;;5088117;28;20032;-85
2024/03/11 04:55:27;;;;;;;6.00;3.92;;;4.60;99.90;;;;;;5087908;28;20071;-85
2024/03/11 04:57:53;;;;;;;6.47;4.28;;;4.70;99.90;;;;;;5090290;28;20043;-83
2024/03/11 05:00:26;;;;;;;6.15;4.40;;;4.60;99.90;;;;;;5086186;28;20039;-84
2024/03/11 05:02:59;;;;;;;5.70;3.50;;;4.70;99.90;;;;;;5087234;28;21325;-84
2024/03/11 05:05:26;;;;;;;5.85;3.30;;;4.70;99.90;;;;;;5089254;28;20159;-84
2024/03/11 05:07:52;;;;;;;7.55;4.43;;;4.60;99.90;;;;;;5088198;28;20035;-82
2024/03/11 05:10:18;;;;;;;5.22;3.50;;;4.60;99.90;;;;;;5087506;28;20031;-84
2024/03/11 05:12:47;;;;;;;6.43;4.45;;;4.60;99.90;;;;;;5091631;28;20085;-84
2024/03/11 05:15:15;;;;;;;7.13;3.85;;;4.70;99.90;;;;;;5092049;28;20047;-85
2024/03/11 05:17:43;;;;;;;7.90;4.13;;;4.60;99.90;;;;;;5086995;28;20736;-84
2024/03/11 05:20:14;;;;;;;7.20;5.10;;;4.60;99.90;;;;;;5086920;28;20118;-84
2024/03/11 05:22:41;;;;;;;9.30;5.07;;;4.50;99.90;;;;;;5086758;28;20043;-85
2024/03/11 05:25:08;;;;;;;7.72;5.32;;;4.40;99.90;;;;;;5085798;28;20096;-86
2024/03/11 05:27:35;;;;;;;6.28;4.65;;;4.40;99.90;;;;;;5089652;28;20096;-86
2024/03/11 05:30:02;;;;;;;7.45;4.15;;;4.50;99.90;;;;;;5089644;28;20161;-86
2024/03/11 05:32:27;;;;;;;6.57;4.03;;;4.60;99.90;;;;;;5084743;28;20130;-84
2024/03/11 05:34:53;;;;;;;6.13;4.53;;;4.70;99.90;;;;;;5090399;28;20458;-86
2024/03/11 05:37:20;;;;;;;6.55;4.45;;;4.70;99.90;;;;;;5089975;28;20757;-86
2024/03/11 05:39:46;;;;;;;8.63;4.97;;;4.80;99.90;;;;;;5089118;28;20028;-87
2024/03/11 05:42:14;;;;;;;8.27;4.93;;;4.80;99.90;;;;;;5089185;28;20167;-87
2024/03/11 05:44:40;;;;;;;8.45;5.50;;;4.70;99.90;;;;;;5088045;28;20023;-87
2024/03/11 05:47:06;;;;;;;6.85;4.85;;;4.80;99.90;;;;;;5086274;28;20031;-87
2024/03/11 05:49:33;;;;;;;7.10;4.93;;;4.80;99.90;;;;;;5089237;28;20888;-87
2024/03/11 05:51:59;;;;;;;8.98;6.43;;;4.80;99.90;;;;;;5090284;28;20618;-84
2024/03/11 05:54:25;;;;;;;6.72;5.30;;;4.80;99.90;;;;;;5090034;27;20076;-83
2024/03/11 05:56:56;;;;;;;8.70;5.65;;;4.80;99.90;;;;;;5088485;28;21456;-83
2024/03/11 05:59:26;;;;;;;7.90;6.20;;;4.80;99.90;;;;;;5090448;28;20082;-83
2024/03/11 06:01:53;;;;;;;8.80;6.47;;;4.80;99.90;;;;;;5088558;28;20844;-84
2024/03/11 06:04:19;;;;;;;9.90;6.38;;;4.80;99.90;;;;;;5087755;28;20092;-84
2024/03/11 06:06:51;;;;;;;8.00;5.75;;;4.80;99.90;;;;;;5089627;28;20077;-85
2024/03/11 06:09:17;;;;;;;8.15;5.63;;;4.80;99.90;;;;;;5088202;28;21538;-85
2024/03/11 06:11:47;;;;;;;10.13;6.18;;;4.80;99.90;;;;;;5088149;28;20585;-86
2024/03/11 06:14:13;;;;;;;11.00;7.45;;;4.80;99.90;;;;;;5089202;28;20135;-86
2024/03/11 06:16:39;;;;;;;7.75;5.85;;;4.80;99.90;;;;;;5089458;28;21466;-84
2024/03/11 06:19:08;;;;;;;9.80;6.97;;;4.90;99.90;;;;;;5098601;28;20036;-84
2024/03/11 06:21:37;;;;;;;8.85;5.90;;;4.90;99.90;;;;;;5089569;28;20568;-83
2024/03/11 06:24:05;;;;;;;8.63;6.07;;;4.90;99.90;;;;;;5089878;28;20038;-84
2024/03/11 06:26:34;;;;;;;7.75;5.97;;;4.90;99.90;;;;;;5087446;28;20163;-85
2024/03/11 06:29:03;;;;;;;7.50;5.47;;;5.00;99.90;;;;;;5089828;28;20046;-84
2024/03/11 06:31:30;;;;;;;7.90;5.80;;;5.00;99.90;;;;;;5086887;28;20487;-86
2024/03/11 06:33:56;;;;;;;9.25;5.65;;;5.00;99.90;;;;;;5090096;28;20043;-85
2024/03/11 06:36:22;;;;;;;8.15;5.35;;;5.00;99.90;;;;;;5091077;28;20389;-86
2024/03/11 06:38:48;;;;;;;7.43;5.50;;;5.00;99.90;;;;;;5090382;28;20047;-85
2024/03/11 06:41:19;;;;;;;10.07;7.28;;;5.00;99.90;;;;;;5088199;28;20046;-86
2024/03/11 06:43:45;;;;;;;10.32;6.80;;;5.00;99.90;;;;;;5088762;28;20043;-86
2024/03/11 06:46:15;;;;;;;8.68;5.80;;;4.90;99.90;;;;;;5090679;28;20171;-85
2024/03/11 06:48:42;;;;;;;7.80;5.38;;;5.00;99.90;;;;;;5088892;28;20032;-86
2024/03/11 06:51:09;;;;;;;8.50;5.28;;;5.10;99.90;;;;;;5087807;28;20016;-87
2024/03/11 06:53:35;;;;;;;9.13;5.32;;;5.00;99.90;;;;;;5087989;28;20110;-86
2024/03/11 06:56:08;;;;;;;8.65;5.00;;;5.10;99.90;;;;;;5086912;28;20123;-86
2024/03/11 06:58:34;;;;;;;6.85;4.60;;;5.00;99.90;;;;;;5086021;28;20067;-86
2024/03/11 07:01:00;;;;;;;6.93;4.78;;;5.10;99.90;;;;;;5086602;28;20115;-84
2024/03/11 07:04:11;;;;;;;7.35;5.15;;;5.20;99.90;;;;;;5087548;28;20122;-83
2024/03/11 07:06:39;;;;;;;6.70;4.55;;;5.10;99.90;;;;;;5087451;28;20046;-86
2024/03/11 07:09:05;;;;;;;7.18;4.80;;;5.30;99.90;;;;;;5088974;28;20687;-86
2024/03/11 07:11:31;;;;;;;7.20;4.88;;;5.30;99.90;;;;;;5087080;28;20576;-84
2024/03/11 07:14:23;;;;;;;;;;;;;;;;;;;;;
2024/03/11 07:16:52;;;;;;;10.20;7.00;;;5.00;99.90;;;;;;5085525;28;20052;-84
2024/03/11 07:19:19;;;;;;;10.40;6.45;;;5.00;99.90;;;;;;5092304;28;20038;-85
2024/03/11 07:21:45;;;;;;;8.50;5.70;;;5.00;99.90;;;;;;5094377;28;20028;-84
2024/03/11 07:24:11;;;;;;;6.28;4.50;;;5.10;99.90;;;;;;5086965;28;20038;-86
2024/03/11 07:26:38;;;;;;;6.00;4.50;;;5.20;99.90;;;;;;5078897;28;20557;-84
2024/03/11 07:29:06;;;;;;;6.07;4.00;;;5.30;99.90;;;;;;5083420;28;20067;-83
2024/03/11 07:31:53;;;;;;;5.75;3.90;;;5.30;99.90;;;;;;5084291;28;20151;-83
2024/03/11 07:34:39;;;;;;;5.53;3.38;;;5.40;99.90;;;;;;5020560;28;20052;-82
2024/03/11 07:40:17;;;;;;;5.72;3.88;;;5.60;99.90;;;;;;5039716;28;20473;-82
2024/03/11 07:42:43;;;;;;;10.60;7.50;;;5.60;99.90;;;;;;5083710;28;20493;-84
2024/03/11 07:45:11;;;;;;;9.45;6.20;;;5.40;99.90;;;;;;5089363;28;20024;-83
2024/03/11 07:47:53;;;;;;;12.70;7.28;;;5.30;99.90;;;;;;5087055;28;20032;-83
2024/03/11 07:50:24;;;;;;;12.32;7.57;;;5.20;99.90;;;;;;5088127;28;20048;-85
2024/03/11 07:52:54;;;;;;;8.30;6.05;;;5.10;99.90;;;;;;5090232;28;20051;-88
2024/03/11 07:56:34;;;;;;;6.47;4.60;;;5.40;99.90;;;;;;5088863;28;20040;-84
2024/03/11 07:58:51;;;;;;;5.82;4.10;;;5.50;99.90;;;;;;5077216;28;20061;-83
2024/03/11 08:01:58;;;;;;;6.32;4.35;;;5.50;99.90;;;;;;5086346;28;20074;-82
2024/03/11 08:04:41;;;;;;;6.28;4.13;;;5.60;99.90;;;;;;5086942;28;20048;-82
2024/03/11 08:07:32;;;;;;;7.22;4.57;;;5.70;99.90;;;;;;5089019;28;20055;-82
2024/03/11 08:10:00;;;;;;;7.03;4.82;;;5.70;99.90;;;;;;5089264;28;20536;-85
2024/03/11 08:12:27;;;;;;;6.82;4.53;;;5.70;99.90;;;;;;5088287;28;20394;-83
2024/03/11 08:15:29;;;;;;;7.50;4.45;;;5.70;99.90;;;;;;5087523;28;20040;-83
2024/03/11 08:17:55;;;;;;;6.03;3.85;;;5.80;99.90;;;;;;5025800;28;20060;-84
2024/03/11 08:20:21;;;;;;;7.30;4.47;;;5.90;99.90;;;;;;5059687;28;20040;-82
2024/03/11 08:23:08;;;;;;;7.88;5.15;;;5.80;99.90;;;;;;5070030;28;20511;-84
2024/03/11 08:25:35;;;;;;;8.40;5.85;;;5.70;99.90;;;;;;5070028;28;20072;-83
2024/03/11 08:28:00;;;;;;;8.77;6.43;;;5.80;99.90;;;;;;5070220;28;20047;-83
2024/03/11 08:30:30;;;;;;;9.73;5.85;;;5.80;99.90;;;;;;5069934;28;20043;-84
2024/03/11 08:32:59;;;;;;;6.53;3.65;;;5.80;99.90;;;;;;5070773;28;20682;-82
2024/03/11 08:35:30;;;;;;;4.88;3.30;;;6.10;99.90;;;;;;5070634;28;21435;-82
2024/03/11 08:37:55;;;;;;;7.20;4.55;;;6.10;99.90;;;;;;5068048;28;20047;-84
2024/03/11 08:40:25;;;;;;;7.00;4.45;;;6.10;99.90;;;;;;5069264;28;20063;-83
2024/03/11 08:42:52;;;;;;;6.53;4.38;;;6.10;99.90;;;;;;5069101;28;20024;-84
2024/03/11 08:45:18;;;;;;;9.20;5.90;;;6.20;99.90;;;;;;5068099;28;20089;-84
2024/03/11 08:47:46;;;;;;;8.65;5.90;;;6.30;99.90;;;;;;5064573;28;20035;-85
2024/03/11 08:50:15;;;;;;;10.10;6.78;;;6.30;99.90;;;;;;5066437;28;20046;-84
2024/03/11 08:52:45;;;;;;;10.43;6.05;;;6.40;99.90;;;;;;5066191;28;20701;-84
2024/03/11 08:55:13;;;;;;;8.75;5.88;;;6.30;99.90;;;;;;5065498;28;20333;-84
2024/03/11 08:57:41;;;;;;;6.90;4.43;;;6.40;99.90;;;;;;5066409;28;20036;-84
2024/03/11 09:00:10;;;;;;;7.80;4.75;;;6.50;99.90;;;;;;5067279;28;20028;-85
2024/03/11 09:02:36;;;;;;;7.93;5.05;;;6.50;99.90;;;;;;5066799;28;20085;-82
2024/03/11 09:05:03;;;;;;;7.68;4.68;;;6.50;99.90;;;;;;5067895;28;20036;-84
2024/03/11 09:07:30;;;;;;;5.68;4.22;;;6.50;99.90;;;;;;5069427;28;20036;-82
2024/03/11 09:09:57;;;;;;;6.03;4.10;;;6.60;99.90;;;;;;5069544;28;20595;-82
2024/03/11 09:12:24;;;;;;;6.47;4.05;;;6.60;99.90;;;;;;5067219;28;20134;-82
2024/03/11 09:14:52;;;;;;;5.90;3.28;;;6.80;99.90;;;;;;5069718;28;20032;-82
2024/03/11 09:17:25;;;;;;;6.43;3.75;;;6.90;99.90;;;;;;5084054;28;20054;-82
2024/03/11 09:19:54;;;;;;;5.25;3.17;;;6.90;99.90;;;;;;5088379;28;20580;-81
2024/03/11 09:22:21;;;;;;;5.75;3.70;;;6.90;99.90;;;;;;5090278;28;20040;-84
2024/03/11 09:24:47;;;;;;;6.22;4.10;;;6.90;99.90;;;;;;5089386;28;20085;-84
2024/03/11 09:27:12;;;;;;;6.22;3.60;;;7.00;99.90;;;;;;5088371;28;21321;-84
2024/03/11 09:29:38;;;;;;;6.30;3.70;;;7.10;99.90;;;;;;5089807;27;20559;-83
2024/03/11 09:32:05;;;;;;;6.05;3.75;;;7.10;99.90;;;;;;5087987;28;20036;-83
2024/03/11 09:34:31;;;;;;;5.95;3.55;;;7.10;99.90;;;;;;5088181;28;20118;-82
2024/03/11 09:36:57;;;;;;;6.60;3.85;;;7.20;99.90;;;;;;5089489;28;20101;-82
2024/03/11 09:39:29;;;;;;;7.10;3.00;;;7.10;99.90;;;;;;5090859;28;20039;-83
2024/03/11 09:41:59;;;;;;;5.78;3.28;;;7.20;99.90;;;;;;5088067;28;20084;-84
2024/03/11 09:44:25;;;;;;;5.50;2.63;;;7.30;99.90;;;;;;5089876;28;20132;-85
2024/03/11 09:47:26;;;;;;;4.30;2.55;;;7.60;99.90;;;;;;5088803;28;20036;-82
2024/03/11 09:50:07;;;;;;;;;;;;;;;;;;;;;
2024/03/11 09:52:40;;;;;;;3.58;1.88;;;7.70;99.90;;;;;;5087425;28;20042;-82
2024/03/11 09:55:07;;;;;;;4.22;2.40;;;7.80;99.90;;;;;;5090141;28;20063;-82
2024/03/11 09:57:44;;;;;;;4.70;2.72;;;7.90;99.90;;;;;;5089289;28;20572;-81
2024/03/11 10:00:23;;;;;;;4.35;2.63;;;8.00;99.90;;;;;;5089192;28;20039;-83
2024/03/11 10:06:07;;;;;;;5.72;2.35;;;8.20;99.90;;;;;;5089893;28;20124;-83
2024/03/11 10:08:35;;;;;;;5.25;2.20;;;8.20;99.90;;;;;;5090174;28;20035;-82
2024/03/11 10:11:20;;;;;;;3.15;1.67;;;8.20;99.90;;;;;;5090067;28;20047;-82
2024/03/11 10:14:31;;;;;;;4.45;1.92;;;8.40;99.90;;;;;;5087660;28;20931;-82
2024/03/11 10:16:54;;;;;;;3.47;2.05;;;8.40;99.90;;;;;;5086862;28;20056;-87
2024/03/11 10:19:44;;;;;;;4.57;2.03;;;8.30;99.90;;;;;;5088077;28;20637;-83
2024/03/11 10:22:12;;;;;;;4.95;2.13;;;8.50;99.90;;;;;;5088315;28;20036;-86
2024/03/11 10:24:38;;;;;;;4.85;2.78;;;8.60;99.90;;;;;;5088585;28;20082;-86
2024/03/11 10:27:22;;;;;;;6.57;2.65;;;8.60;99.90;;;;;;5089252;28;20084;-86
2024/03/11 10:29:49;;;;;;;3.90;2.10;;;8.70;99.90;;;;;;5086949;28;20040;-85
2024/03/11 10:32:38;;;;;;;6.88;2.60;;;8.90;99.90;;;;;;5089029;28;20495;-82
2024/03/11 10:35:08;;;;;;;4.32;2.20;;;8.80;99.90;;;;;;5088308;28;20028;-84
2024/03/11 10:37:35;;;;;;;4.10;2.53;;;8.90;99.90;;;;;;5088342;28;20047;-83
2024/03/11 10:40:14;;;;;;;3.50;2.20;;;9.10;99.90;;;;;;5089019;28;20035;-82
2024/03/11 10:42:49;;;;;;;3.65;1.98;;;9.00;99.90;;;;;;5089594;28;20028;-83
2024/03/11 10:45:29;;;;;;;3.70;1.77;;;9.20;99.90;;;;;;5087603;28;20548;-82
2024/03/11 10:48:00;;;;;;;3.10;1.73;;;9.40;99.90;;;;;;5085817;28;20035;-83
2024/03/11 10:50:29;;;;;;;3.33;1.90;;;9.70;99.90;;;;;;5088752;28;20027;-83
2024/03/11 10:52:59;;;;;;;5.68;1.60;;;10.00;99.90;;;;;;5086930;28;20031;-82
2024/03/11 10:55:32;;;;;;;3.45;1.50;;;10.10;99.90;;;;;;5088335;28;20067;-85
2024/03/11 10:58:03;;;;;;;2.92;1.85;;;10.00;99.90;;;;;;5087972;28;20045;-84
2024/03/11 11:00:34;;;;;;;5.20;1.52;;;10.10;99.90;;;;;;5086458;28;20154;-82
2024/03/11 11:03:13;;;;;;;3.80;1.90;;;10.30;99.90;;;;;;5088387;28;20058;-81
2024/03/11 11:05:53;;;;;;;3.10;1.58;;;10.30;99.90;;;;;;5089125;28;20038;-82
2024/03/11 11:08:22;;;;;;;3.00;1.20;;;10.30;99.90;;;;;;5089882;28;20048;-84
2024/03/11 11:10:51;;;;;;;2.47;1.27;;;10.20;99.90;;;;;;5088848;28;20086;-82
2024/03/11 11:13:17;;;;;;;2.42;0.95;;;10.20;99.90;;;;;;5087257;28;20154;-84
2024/03/11 11:15:48;;;;;;;19.00;9.38;;;10.40;99.90;;;;;;5089482;28;20122;-84
2024/03/11 11:18:16;;;;;;;11.88;6.00;;;10.60;99.90;;;;;;5090475;28;20047;-84
2024/03/11 11:20:52;;;;;;;5.82;2.95;;;10.70;99.90;;;;;;5087312;28;20035;-84
2024/03/11 11:23:41;;;;;;;9.63;3.25;;;10.70;99.90;;;;;;5090385;28;20032;-82
2024/03/11 11:26:07;;;;;;;20.90;9.38;;;10.80;99.90;;;;;;5090392;28;20067;-82
2024/03/11 11:28:55;;;;;;;13.65;7.07;;;11.00;99.90;;;;;;5091781;28;20442;-82
2024/03/11 11:31:32;;;;;;;11.77;4.50;;;11.10;99.90;;;;;;5092012;28;20142;-82
2024/03/11 11:34:07;;;;;;;5.72;2.45;;;11.30;99.90;;;;;;5089156;28;20028;-82
2024/03/11 11:36:39;;;;;;;4.43;1.60;;;11.50;99.90;;;;;;5092147;28;20093;-82
2024/03/11 11:39:28;;;;;;;4.28;2.22;;;11.60;99.90;;;;;;5091505;28;20051;-82
2024/03/11 11:41:57;;;;;;;7.07;3.50;;;11.70;99.90;;;;;;5091662;28;20062;-83
2024/03/11 11:44:28;;;;;;;37.05;19.00;;;11.80;99.90;;;;;;5091918;28;20645;-82
2024/03/11 11:47:15;;;;;;;30.05;14.48;;;11.90;99.90;;;;;;5090884;28;20044;-83
2024/03/11 11:49:43;;;;;;;7.45;3.53;;;12.00;99.90;;;;;;5090418;28;20032;-83
2024/03/11 11:52:13;;;;;;;5.63;2.33;;;11.90;99.90;;;;;;5091428;28;20038;-83
2024/03/11 11:54:40;;;;;;;4.85;1.77;;;11.90;99.90;;;;;;5091278;28;20047;-82
2024/03/11 11:57:06;;;;;;;5.10;2.75;;;12.00;99.90;;;;;;5091363;27;20049;-81
2024/03/11 11:59:33;;;;;;;20.92;7.32;;;11.90;99.90;;;;;;5090408;28;20054;-82
2024/03/11 12:02:02;;;;;;;35.30;13.40;;;12.10;99.90;;;;;;5093681;28;20058;-83
2024/03/11 12:04:30;;;;;;;11.07;4.68;;;12.20;99.90;;;;;;5090684;28;20035;-83
2024/03/11 12:06:56;;;;;;;14.90;4.72;;;12.40;99.90;;;;;;5086898;28;20028;-85
2024/03/11 12:09:23;;;;;;;7.82;3.40;;;12.40;99.90;;;;;;5087924;28;20036;-85
2024/03/11 12:11:49;;;;;;;8.77;3.45;;;12.30;99.90;;;;;;5088468;28;20047;-85
2024/03/11 12:14:15;;;;;;;2.25;1.05;;;12.10;99.90;;;;;;5088416;28;20427;-85
2024/03/11 12:16:42;;;;;;;3.03;0.90;;;12.20;99.90;;;;;;5086615;28;20957;-85
2024/03/11 12:19:10;;;;;;;2.15;0.70;;;12.20;99.90;;;;;;5086534;28;20047;-84
2024/03/11 12:21:51;;;;;;;2.65;1.20;;;12.30;99.90;;;;;;5087509;28;20035;-84
2024/03/11 12:24:21;;;;;;;3.83;2.10;;;12.30;99.90;;;;;;5088675;28;20043;-83
2024/03/11 12:26:47;;;;;;;5.60;2.33;;;12.50;99.90;;;;;;5088474;28;20028;-83
2024/03/11 12:29:15;;;;;;;4.32;2.30;;;12.60;98.80;;;;;;5087962;28;20043;-83
2024/03/11 12:31:41;;;;;;;1.65;1.02;;;12.70;99.20;;;;;;5088503;28;20600;-82
2024/03/11 12:34:13;;;;;;;4.47;2.22;;;12.60;98.80;;;;;;5088831;28;20032;-82
2024/03/11 12:36:47;;;;;;;5.53;2.40;;;12.70;99.50;;;;;;5086852;28;20757;-82
2024/03/11 12:39:56;;;;;;;3.03;1.50;;;12.70;99.40;;;;;;5091290;28;20035;-84
2024/03/11 12:42:03;;;;;;;2.75;1.38;;;12.60;98.70;;;;;;5077488;28;20108;-83
2024/03/11 12:44:31;;;;;;;1.00;0.40;;;12.90;98.00;;;;;;5088260;28;20031;-83
2024/03/11 12:47:01;;;;;;;3.47;0.50;;;13.00;97.80;;;;;;5087669;28;20032;-81
2024/03/11 12:49:29;;;;;;;5.93;3.22;;;12.70;96.10;;;;;;5086521;28;20109;-84
2024/03/11 12:52:09;;;;;;;1.95;1.05;;;12.90;97.20;;;;;;5085498;28;20044;-83
2024/03/11 12:54:37;;;;;;;2.30;0.90;;;12.90;95.60;;;;;;5086831;28;20088;-83
2024/03/11 12:57:18;;;;;;;0.68;0.22;;;12.80;95.80;;;;;;5088086;28;20495;-84
2024/03/11 13:00:07;;;;;;;0.88;0.30;;;13.00;97.00;;;;;;5087549;28;20040;-84
2024/03/11 13:02:35;;;;;;;48.38;24.33;;;13.30;98.30;;;;;;5086713;28;20038;-82
2024/03/11 13:05:14;;;;;;;4.75;2.03;;;13.40;97.80;;;;;;5088701;28;20035;-82
2024/03/11 13:07:40;;;;;;;1.55;0.60;;;13.10;97.40;;;;;;5088430;28;20035;-82
2024/03/11 13:10:07;;;;;;;2.60;0.88;;;13.30;98.10;;;;;;5088227;28;20488;-83
2024/03/11 13:12:33;;;;;;;9.50;5.30;;;13.30;97.90;;;;;;5085638;28;20761;-83
2024/03/11 13:14:59;;;;;;;3.63;1.70;;;13.30;97.40;;;;;;5088948;28;20036;-84